createdAt,value
2022-09-04T00:00:00.970Z,3.20
2022-09-04T00:02:42.005Z,3.53
2022-09-04T00:05:17.222Z,3.22
2022-09-04T00:07:54.496Z,3.10
2022-09-04T00:10:24.353Z,3.15
2022-09-04T00:12:55.574Z,3.08
2022-09-04T00:15:28.208Z,2.90
2022-09-04T00:17:57.667Z,3.05
2022-09-04T00:20:32.089Z,2.92
2022-09-04T00:23:02.084Z,3.47
2022-09-04T00:25:33.917Z,3.72
2022-09-04T00:28:04.914Z,3.55
2022-09-04T00:30:36.546Z,3.60
2022-09-04T00:33:07.774Z,3.40
2022-09-04T00:35:38.417Z,2.92
2022-09-04T00:38:09.336Z,3.42
2022-09-04T00:40:39.661Z,3.20
2022-09-04T00:43:27.961Z,3.25
2022-09-04T00:46:06.993Z,3.47
2022-09-04T00:48:47.933Z,3.00
2022-09-04T00:51:22.720Z,3.70
2022-09-04T00:54:06.083Z,3.42
2022-09-04T00:56:55.185Z,3.75
2022-09-04T00:59:28.821Z,3.65
2022-09-04T01:02:02.321Z,3.47
2022-09-04T01:04:37.661Z,3.58
2022-09-04T01:07:14.653Z,3.25
2022-09-04T01:09:57.534Z,3.97
2022-09-04T01:12:30.885Z,3.28
2022-09-04T01:15:01.383Z,3.38
2022-09-04T01:17:35.102Z,3.08
2022-09-04T01:20:07.178Z,3.45
2022-09-04T01:22:46.601Z,3.63
2022-09-04T01:25:26.156Z,3.38
2022-09-04T01:27:58.706Z,4.45
2022-09-04T01:30:26.404Z,3.45
2022-09-04T01:33:00.517Z,4.00
2022-09-04T01:35:33.961Z,3.83
2022-09-04T01:38:04.889Z,3.40
2022-09-04T01:40:37.714Z,3.63
2022-09-04T01:43:12.052Z,3.53
2022-09-04T01:46:06.741Z,3.42
2022-09-04T01:48:39.521Z,3.40
2022-09-04T01:51:15.208Z,3.50
2022-09-04T01:53:44.769Z,3.22
2022-09-04T01:56:15.899Z,3.42
2022-09-04T01:58:48.539Z,3.78
2022-09-04T02:01:23.134Z,3.80
2022-09-04T02:04:00.461Z,3.92
2022-09-04T02:06:33.027Z,4.05
2022-09-04T02:09:11.519Z,3.63
2022-09-04T02:11:40.984Z,3.88
2022-09-04T02:14:17.696Z,3.80
2022-09-04T02:16:48.732Z,3.42
2022-09-04T02:19:23.840Z,3.55
2022-09-04T02:21:56.536Z,3.65
2022-09-04T02:24:28.680Z,3.30
2022-09-04T02:27:00.730Z,3.30
2022-09-04T02:29:33.409Z,4.32
2022-09-04T02:32:05.258Z,3.33
2022-09-04T02:34:40.185Z,3.50
2022-09-04T02:37:12.949Z,3.30
2022-09-04T02:39:46.928Z,3.58
2022-09-04T02:42:19.546Z,3.47
2022-09-04T02:44:53.728Z,3.25
2022-09-04T02:47:24.884Z,3.22
2022-09-04T02:49:58.338Z,3.80
2022-09-04T02:52:53.068Z,4.07
2022-09-04T02:55:31.717Z,3.70
2022-09-04T02:58:02.765Z,3.67
2022-09-04T03:00:39.801Z,3.70
2022-09-04T03:03:10.616Z,3.42
2022-09-04T03:05:42.953Z,3.20
2022-09-04T03:08:15.184Z,3.40
2022-09-04T03:10:45.041Z,3.30
2022-09-04T03:13:16.747Z,4.55
2022-09-04T03:15:46.768Z,3.58
2022-09-04T03:18:17.616Z,3.92
2022-09-04T03:20:48.620Z,3.42
2022-09-04T03:23:19.045Z,3.50
2022-09-04T03:25:51.640Z,3.45
2022-09-04T03:28:24.264Z,3.85
2022-09-04T03:30:54.456Z,3.38
2022-09-04T03:33:27.286Z,3.83
2022-09-04T03:36:00.689Z,3.70
2022-09-04T03:38:33.966Z,3.60
2022-09-04T03:41:22.321Z,3.10
2022-09-04T03:43:57.303Z,3.55
2022-09-04T03:46:34.551Z,3.25
2022-09-04T03:49:09.725Z,3.63
2022-09-04T03:51:42.804Z,3.42
2022-09-04T03:54:15.852Z,3.58
2022-09-04T03:56:59.444Z,3.95
2022-09-04T03:59:37.923Z,3.75
2022-09-04T04:02:11.154Z,3.60
2022-09-04T04:04:52.171Z,3.25
2022-09-04T04:07:25.111Z,3.65
2022-09-04T04:09:59.690Z,3.10
2022-09-04T04:12:42.573Z,3.25
2022-09-04T04:15:20.321Z,4.00
2022-09-04T04:18:11.871Z,3.40
2022-09-04T04:20:42.352Z,3.70
2022-09-04T04:23:18.021Z,3.97
2022-09-04T04:26:00.685Z,3.85
2022-09-04T04:28:40.260Z,3.88
2022-09-04T04:31:15.573Z,3.65
2022-09-04T04:33:51.633Z,3.28
2022-09-04T04:36:21.943Z,3.42
2022-09-04T04:38:56.454Z,3.70
2022-09-04T04:41:58.910Z,3.65
2022-09-04T04:44:50.445Z,3.95
2022-09-04T04:47:22.220Z,3.67
2022-09-04T04:50:00.989Z,3.50
2022-09-04T04:52:33.542Z,3.92
2022-09-04T04:55:07.176Z,4.15
2022-09-04T04:57:39.501Z,3.80
2022-09-04T05:00:11.464Z,4.25
2022-09-04T05:02:43.358Z,4.72
2022-09-04T05:05:15.839Z,4.22
2022-09-04T05:07:47.143Z,4.43
2022-09-04T05:10:19.266Z,4.88
2022-09-04T05:12:54.560Z,4.40
2022-09-04T05:15:25.687Z,4.80
2022-09-04T05:17:55.873Z,5.22
2022-09-04T05:20:30.719Z,4.47
2022-09-04T05:23:06.093Z,4.43
2022-09-04T05:25:37.993Z,5.10
2022-09-04T05:28:08.089Z,4.93
2022-09-04T05:30:40.365Z,4.80
2022-09-04T05:33:12.881Z,5.13
2022-09-04T05:35:44.923Z,4.70
2022-09-04T05:38:16.841Z,5.53
2022-09-04T05:40:52.234Z,5.75
2022-09-04T05:43:24.292Z,5.72
2022-09-04T05:45:59.830Z,6.00
2022-09-04T05:48:31.937Z,5.82
2022-09-04T05:51:08.535Z,6.10
2022-09-04T05:53:41.886Z,5.78
2022-09-04T05:56:17.052Z,6.25
2022-09-04T05:58:51.116Z,5.55
2022-09-04T06:01:25.737Z,6.05
2022-09-04T06:04:00.645Z,5.93
2022-09-04T06:06:32.961Z,5.93
2022-09-04T06:09:09.954Z,6.25
2022-09-04T06:11:41.936Z,6.90
2022-09-04T06:14:14.453Z,6.03
2022-09-04T06:16:49.745Z,5.60
2022-09-04T06:19:28.952Z,6.55
2022-09-04T06:22:18.049Z,6.47
2022-09-04T06:24:51.495Z,6.40
2022-09-04T06:27:29.628Z,6.80
2022-09-04T06:30:05.298Z,6.47
2022-09-04T06:32:45.327Z,7.28
2022-09-04T06:35:32.977Z,7.28
2022-09-04T06:38:14.376Z,7.22
2022-09-04T06:40:47.293Z,7.68
2022-09-04T06:43:20.722Z,8.00
2022-09-04T06:45:57.810Z,7.07
2022-09-04T06:48:33.905Z,8.38
2022-09-04T06:51:08.206Z,8.70
2022-09-04T06:53:42.520Z,8.23
2022-09-04T06:56:21.597Z,9.00
2022-09-04T06:59:00.579Z,9.30
2022-09-04T07:01:34.579Z,8.45
2022-09-04T07:04:07.309Z,8.65
2022-09-04T07:06:47.063Z,9.23
2022-09-04T07:09:17.988Z,8.45
2022-09-04T07:11:59.611Z,10.32
2022-09-04T07:14:43.468Z,8.50
2022-09-04T07:17:15.908Z,9.90
2022-09-04T07:20:01.175Z,9.63
2022-09-04T07:22:39.284Z,9.13
2022-09-04T07:25:13.307Z,10.50
2022-09-04T07:27:49.191Z,8.07
2022-09-04T07:30:17.304Z,9.63
2022-09-04T07:32:49.275Z,9.93
2022-09-04T07:35:21.057Z,10.13
2022-09-04T07:37:51.805Z,9.07
2022-09-04T07:40:22.695Z,10.70
2022-09-04T07:42:54.604Z,11.32
2022-09-04T07:45:27.839Z,11.40
2022-09-04T07:48:00.173Z,10.20
2022-09-04T07:50:32.945Z,10.05
2022-09-04T07:53:11.493Z,9.65
2022-09-04T07:55:41.767Z,10.07
2022-09-04T07:58:28.326Z,10.15
2022-09-04T08:01:03.578Z,9.82
2022-09-04T08:03:37.957Z,11.07
2022-09-04T08:06:25.554Z,10.50
2022-09-04T08:09:06.906Z,9.48
2022-09-04T08:11:48.480Z,10.02
2022-09-04T08:14:24.905Z,9.00
2022-09-04T08:16:57.637Z,8.82
2022-09-04T08:19:31.248Z,7.78
2022-09-04T08:21:59.853Z,8.48
2022-09-04T08:24:35.336Z,8.55
2022-09-04T08:27:10.339Z,8.20
2022-09-04T08:29:48.319Z,7.47
2022-09-04T08:32:24.708Z,8.38
2022-09-04T08:35:08.881Z,8.35
2022-09-04T08:37:40.432Z,5.80
2022-09-04T08:40:30.430Z,6.25
2022-09-04T08:43:13.012Z,5.00
2022-09-04T08:45:59.464Z,5.15
2022-09-04T08:48:37.040Z,4.75
2022-09-04T08:51:18.122Z,5.28
2022-09-04T08:54:03.453Z,5.93
2022-09-04T08:56:36.153Z,5.70
2022-09-04T08:59:22.257Z,5.35
2022-09-04T09:02:06.604Z,5.07
2022-09-04T09:05:00.093Z,5.70
2022-09-04T09:07:42.611Z,4.43
2022-09-04T09:10:35.801Z,4.20
2022-09-04T09:13:22.173Z,3.95
2022-09-04T09:15:53.355Z,3.78
2022-09-04T09:18:35.877Z,3.00
2022-09-04T09:21:09.085Z,4.35
2022-09-04T09:23:54.723Z,4.00
2022-09-04T09:26:28.188Z,3.80
2022-09-04T09:29:14.985Z,3.47
2022-09-04T09:32:07.168Z,4.25
2022-09-04T09:34:53.921Z,3.45
2022-09-04T09:37:36.474Z,3.65
2022-09-04T09:40:32.728Z,3.40
2022-09-04T09:43:13.832Z,3.58
2022-09-04T09:45:52.762Z,3.30
2022-09-04T09:48:48.371Z,3.50
2022-09-04T09:51:34.501Z,4.03
2022-09-04T09:54:19.584Z,8.50
2022-09-04T09:57:12.956Z,4.72
2022-09-04T10:00:02.400Z,3.80
2022-09-04T10:02:51.197Z,3.33
2022-09-04T10:05:32.108Z,4.15
2022-09-04T10:08:36.024Z,5.05
2022-09-04T10:11:09.894Z,3.33
2022-09-04T10:13:50.025Z,4.13
2022-09-04T10:16:29.737Z,3.67
2022-09-04T10:19:12.455Z,3.60
2022-09-04T10:22:07.797Z,3.95
2022-09-04T10:25:05.908Z,3.95
2022-09-04T10:27:47.085Z,2.72
2022-09-04T10:30:18.205Z,2.88
2022-09-04T10:33:07.945Z,2.78
2022-09-04T10:35:44.872Z,2.72
2022-09-04T10:38:27.593Z,2.35
2022-09-04T10:41:05.575Z,1.90
2022-09-04T10:43:39.969Z,1.83
2022-09-04T10:46:13.832Z,1.75
2022-09-04T10:48:59.833Z,1.13
2022-09-04T10:51:45.654Z,1.40
2022-09-04T10:54:28.496Z,2.22
2022-09-04T10:57:04.662Z,1.00
2022-09-04T10:59:47.340Z,1.50
2022-09-04T11:02:30.048Z,1.30
2022-09-04T11:05:07.516Z,1.17
2022-09-04T11:07:48.409Z,1.00
2022-09-04T11:10:22.377Z,0.90
2022-09-04T11:12:57.308Z,1.58
2022-09-04T11:15:33.959Z,1.20
2022-09-04T11:18:28.468Z,1.15
2022-09-04T11:21:14.003Z,1.25
2022-09-04T11:24:08.786Z,2.15
2022-09-04T11:26:54.863Z,13.43
2022-09-04T11:29:33.458Z,10.70
2022-09-04T11:32:12.164Z,24.98
2022-09-04T11:35:10.324Z,5.72
2022-09-04T11:37:59.798Z,18.55
2022-09-04T11:40:48.392Z,13.82
2022-09-04T11:43:25.978Z,8.60
2022-09-04T11:46:02.402Z,5.43
2022-09-04T11:48:45.665Z,23.90
2022-09-04T11:51:40.540Z,26.17
2022-09-04T11:54:26.925Z,4.85
2022-09-04T11:57:03.010Z,2.75
2022-09-04T11:59:47.384Z,2.42
2022-09-04T12:02:30.874Z,1.70
2022-09-04T12:05:11.386Z,2.45
2022-09-04T12:07:46.866Z,6.78
2022-09-04T12:10:21.009Z,3.90
2022-09-04T12:13:14.827Z,1.60
2022-09-04T12:16:01.643Z,1.85
2022-09-04T12:18:45.756Z,1.58
2022-09-04T12:21:35.826Z,2.78
2022-09-04T12:24:25.504Z,0.93
2022-09-04T12:27:11.377Z,2.95
2022-09-04T12:29:47.425Z,2.20
2022-09-04T12:32:48.080Z,1.08
2022-09-04T12:35:33.741Z,1.30
2022-09-04T12:38:09.643Z,0.85
2022-09-04T12:40:41.673Z,1.23
2022-09-04T12:43:25.819Z,1.27
2022-09-04T12:46:04.462Z,1.02
2022-09-04T12:48:36.438Z,1.20
2022-09-04T12:51:11.800Z,1.33
2022-09-04T12:53:52.828Z,1.20
2022-09-04T12:56:26.162Z,1.30
2022-09-04T12:59:01.963Z,0.88
2022-09-04T13:01:36.633Z,1.70
2022-09-04T13:04:09.934Z,1.10
2022-09-04T13:06:44.217Z,1.08
2022-09-04T13:09:17.057Z,0.98
2022-09-04T13:11:49.808Z,1.02
2022-09-04T13:14:27.428Z,0.95
2022-09-04T13:17:00.301Z,1.27
2022-09-04T13:19:30.712Z,0.82
2022-09-04T13:22:08.557Z,0.80
2022-09-04T13:24:44.439Z,0.90
2022-09-04T13:27:27.391Z,1.00
2022-09-04T13:30:03.510Z,0.95
2022-09-04T13:32:51.647Z,0.80
2022-09-04T13:35:25.272Z,0.75
2022-09-04T13:38:04.149Z,1.10
2022-09-04T13:40:37.055Z,0.57
2022-09-04T13:43:19.647Z,1.10
2022-09-04T13:45:48.977Z,0.65
2022-09-04T13:48:21.765Z,1.30
2022-09-04T13:50:52.195Z,1.15
2022-09-04T13:53:22.545Z,0.50
2022-09-04T13:55:54.324Z,0.80
2022-09-04T13:58:23.067Z,0.80
2022-09-04T14:00:52.596Z,0.50
2022-09-04T14:03:27.251Z,1.10
2022-09-04T14:05:55.395Z,0.50
2022-09-04T14:08:24.600Z,0.95
2022-09-04T14:11:03.170Z,0.70
2022-09-04T14:13:38.008Z,0.80
2022-09-04T14:16:06.762Z,0.60
2022-09-04T14:18:57.046Z,0.73
2022-09-04T14:21:31.782Z,0.70
2022-09-04T14:24:03.370Z,0.68
2022-09-04T14:26:36.782Z,0.60
2022-09-04T14:29:07.972Z,0.38
2022-09-04T14:31:46.617Z,0.70
2022-09-04T14:34:17.432Z,1.00
2022-09-04T14:36:56.508Z,0.52
2022-09-04T14:39:27.879Z,0.35
2022-09-04T14:42:04.754Z,0.57
2022-09-04T14:44:39.446Z,0.50
2022-09-04T14:47:12.133Z,0.60
2022-09-04T14:49:47.265Z,0.50
2022-09-04T14:52:19.699Z,0.30
2022-09-04T14:54:52.372Z,0.43
2022-09-04T14:57:23.539Z,0.60
2022-09-04T14:59:57.997Z,0.40
2022-09-04T15:02:30.968Z,0.60
2022-09-04T15:05:01.277Z,0.68
2022-09-04T15:07:49.207Z,0.45
2022-09-04T15:10:24.416Z,0.80
2022-09-04T15:12:54.628Z,0.80
2022-09-04T15:15:25.195Z,0.80
2022-09-04T15:17:55.108Z,0.60
2022-09-04T15:20:25.502Z,0.30
2022-09-04T15:22:55.193Z,0.77
2022-09-04T15:25:57.858Z,1.17
2022-09-04T15:28:28.817Z,0.35
2022-09-04T15:31:02.174Z,0.32
2022-09-04T15:33:29.957Z,0.47
2022-09-04T15:36:04.430Z,1.13
2022-09-04T15:38:33.272Z,0.80
2022-09-04T15:41:16.718Z,0.88
2022-09-04T15:43:47.767Z,0.63
2022-09-04T15:46:19.339Z,0.80
2022-09-04T15:48:53.327Z,0.40
2022-09-04T15:51:24.616Z,0.50
2022-09-04T15:54:13.208Z,0.50
2022-09-04T15:56:45.965Z,0.40
2022-09-04T15:59:18.151Z,0.77
2022-09-04T16:01:48.945Z,0.52
2022-09-04T16:04:23.144Z,0.32
2022-09-04T16:06:54.543Z,0.45
2022-09-04T16:09:25.746Z,0.32
2022-09-04T16:12:00.678Z,0.60
2022-09-04T16:14:30.516Z,0.63
2022-09-04T16:17:00.946Z,0.10
2022-09-04T16:19:31.084Z,0.20
2022-09-04T16:22:06.354Z,0.70
2022-09-04T16:24:36.072Z,0.47
2022-09-04T16:27:07.711Z,0.30
2022-09-04T16:29:36.583Z,0.50
2022-09-04T16:32:06.761Z,0.70
2022-09-04T16:34:37.567Z,0.88
2022-09-04T16:37:10.920Z,0.80
2022-09-04T16:39:42.973Z,0.80
2022-09-04T16:42:15.928Z,1.00
2022-09-04T16:44:45.426Z,0.70
2022-09-04T16:47:16.986Z,0.70
2022-09-04T16:49:51.285Z,0.90
2022-09-04T16:52:37.539Z,0.90
2022-09-04T16:55:10.488Z,1.10
2022-09-04T16:57:43.449Z,0.98
2022-09-04T17:00:12.113Z,0.80
2022-09-04T17:02:44.181Z,0.85
2022-09-04T17:05:17.884Z,0.73
2022-09-04T17:07:49.869Z,0.90
2022-09-04T17:10:30.618Z,0.90
2022-09-04T17:13:10.329Z,0.60
2022-09-04T17:15:53.193Z,1.00
2022-09-04T17:18:23.336Z,0.90
2022-09-04T17:26:00.912Z,0.90
2022-09-04T17:29:01.229Z,1.00
2022-09-04T17:29:17.147Z,0.60
2022-09-04T17:29:39.286Z,0.60
2022-09-04T17:35:16.978Z,0.47
2022-09-04T17:40:36.360Z,0.85
2022-09-04T17:40:46.823Z,0.30
2022-09-04T17:41:38.175Z,1.23
2022-09-04T17:43:42.743Z,1.00
2022-09-04T17:46:20.708Z,0.90
2022-09-04T17:48:48.473Z,1.45
2022-09-04T17:51:17.820Z,1.00
2022-09-04T17:53:48.203Z,0.63
2022-09-04T17:56:18.855Z,0.95
2022-09-04T17:58:50.440Z,1.17
2022-09-04T18:01:21.945Z,1.30
2022-09-04T18:04:21.038Z,1.52
2022-09-04T18:06:49.573Z,1.15
2022-09-04T18:09:26.398Z,1.50
2022-09-04T18:12:00.876Z,1.60
2022-09-04T18:14:34.448Z,1.00
2022-09-04T18:17:11.271Z,0.30
2022-09-04T18:19:42.883Z,1.10
2022-09-04T18:22:26.368Z,1.13
2022-09-04T18:25:15.910Z,1.00
2022-09-04T18:27:50.658Z,0.77
2022-09-04T18:37:11.648Z,0.73
2022-09-04T18:37:17.026Z,1.05
2022-09-04T18:37:19.447Z,0.45
2022-09-04T18:39:25.146Z,1.92
2022-09-04T18:50:20.608Z,1.80
2022-09-04T18:50:28.381Z,1.35
2022-09-04T18:50:48.100Z,0.57
2022-09-04T18:53:29.682Z,0.73
2022-09-04T18:55:59.693Z,1.30
2022-09-04T18:58:44.968Z,1.52
2022-09-04T19:01:16.770Z,2.08
2022-09-04T19:03:56.342Z,1.88
2022-09-04T19:06:31.857Z,1.80
2022-09-04T19:09:01.919Z,1.88
2022-09-04T19:11:32.499Z,1.60
2022-09-04T19:14:10.370Z,1.98
2022-09-04T19:16:40.638Z,1.58
2022-09-04T19:19:14.237Z,1.63
2022-09-04T19:21:58.304Z,2.00
2022-09-04T19:24:34.396Z,1.30
2022-09-04T19:27:27.330Z,1.80
2022-09-04T19:30:05.221Z,2.00
2022-09-04T19:32:59.824Z,1.80
2022-09-04T19:35:32.323Z,1.90
2022-09-04T19:42:25.552Z,2.13
2022-09-04T19:46:00.184Z,1.77
2022-09-04T19:46:19.663Z,2.05
2022-09-04T19:46:43.779Z,2.10
2022-09-04T19:51:38.825Z,1.98
2022-09-04T19:53:30.285Z,1.98
2022-09-04T19:55:24.067Z,1.73
2022-09-04T19:57:47.405Z,2.28
2022-09-04T20:00:43.792Z,2.15
2022-09-04T20:03:28.451Z,1.63
2022-09-04T20:06:02.101Z,2.13
2022-09-04T20:08:51.660Z,1.70
2022-09-04T20:11:27.240Z,1.70
2022-09-04T20:14:10.116Z,1.45
2022-09-04T20:16:48.399Z,1.55
2022-09-04T20:19:26.563Z,1.65
2022-09-04T20:21:57.388Z,1.50
2022-09-04T20:24:26.804Z,1.45
2022-09-04T20:26:58.894Z,1.60
2022-09-04T20:29:31.016Z,1.95
2022-09-04T20:32:04.209Z,2.30
2022-09-04T20:34:39.028Z,1.73
2022-09-04T20:37:23.068Z,1.52
2022-09-04T20:39:58.218Z,1.50
2022-09-04T20:42:29.407Z,1.67
2022-09-04T20:46:26.447Z,1.80
2022-09-04T20:52:45.783Z,1.63
2022-09-04T20:52:52.408Z,2.03
2022-09-04T20:53:32.771Z,1.50
2022-09-04T20:56:04.892Z,1.75
2022-09-04T21:03:07.739Z,1.30
2022-09-04T21:03:23.853Z,1.60
2022-09-04T21:04:43.086Z,1.67
2022-09-04T21:07:17.884Z,1.42
2022-09-04T21:09:55.500Z,1.52
2022-09-04T21:12:31.489Z,1.67
2022-09-04T21:15:04.768Z,2.08
2022-09-04T21:17:40.224Z,1.40
2022-09-04T21:20:14.605Z,1.70
2022-09-04T21:22:50.824Z,1.30
2022-09-04T21:25:42.228Z,1.70
2022-09-04T21:28:28.723Z,1.30
2022-09-04T21:31:06.637Z,1.55
2022-09-04T21:33:41.247Z,1.50
2022-09-04T21:36:26.639Z,1.70
2022-09-04T21:39:13.658Z,1.70
2022-09-04T21:41:54.082Z,1.80
2022-09-04T21:44:29.272Z,1.60
2022-09-04T21:47:16.012Z,1.38
2022-09-04T21:50:05.479Z,0.82
2022-09-04T21:52:39.177Z,1.25
2022-09-04T21:57:05.546Z,1.80
2022-09-04T22:02:38.114Z,1.83
2022-09-04T22:02:42.419Z,1.70
2022-09-04T22:04:04.711Z,1.70
2022-09-04T22:07:11.067Z,1.55
2022-09-04T22:13:30.444Z,1.60
2022-09-04T22:13:38.064Z,1.50
2022-09-04T22:15:32.630Z,1.45
2022-09-04T22:18:15.552Z,1.38
2022-09-04T22:20:52.391Z,1.90
2022-09-04T22:23:38.945Z,1.55
2022-09-04T22:26:24.603Z,1.45
2022-09-04T22:29:13.341Z,1.60
2022-09-04T22:31:57.859Z,1.50
2022-09-04T22:34:41.572Z,2.53
2022-09-04T22:37:27.831Z,1.60
2022-09-04T22:40:04.367Z,1.80
2022-09-04T22:42:40.455Z,1.40
2022-09-04T22:45:36.902Z,1.52
2022-09-04T22:48:16.017Z,1.70
2022-09-04T22:50:50.446Z,1.30
2022-09-04T22:53:44.293Z,1.60
2022-09-04T22:56:24.125Z,1.73
2022-09-04T22:59:20.487Z,1.60
2022-09-04T23:02:13.490Z,1.60
2022-09-04T23:04:52.653Z,1.40
2022-09-04T23:13:43.459Z,1.67
2022-09-04T23:13:46.989Z,2.00
2022-09-04T23:14:05.173Z,1.63
2022-09-04T23:16:29.906Z,1.60
2022-09-04T23:21:22.236Z,1.35
2022-09-04T23:26:37.794Z,1.60
2022-09-04T23:26:41.496Z,1.48
2022-09-04T23:28:27.300Z,1.60
2022-09-04T23:30:57.369Z,1.92
2022-09-04T23:33:38.324Z,1.85
2022-09-04T23:36:35.660Z,1.65
2022-09-04T23:39:08.797Z,1.33
2022-09-04T23:41:53.255Z,1.77
2022-09-04T23:44:33.820Z,1.52
2022-09-04T23:47:07.393Z,1.60
2022-09-04T23:49:53.861Z,1.65
2022-09-04T23:52:27.378Z,1.85
2022-09-04T23:55:04.149Z,1.77
2022-09-04T23:57:37.162Z,1.92
